Takigahara, Fuji Air Base (RJAT)

NameFuji Air Base
CityTakigahara
CountryJapan
ICAORJAT
IATA
Altitude692 m
CoordinatesGoogle Map
Live Air TrafficLiveATC.net
METARRJAT 080101Z 23007G19KT 9999 FEW015 07/M10 Q1017 RMK 1CU015 A3004
2019-03-08 01:01:00 Wind: Southwest (230°) 3.6 m/s - Visibility: > 10000 m - Temperature: 7 °C - Dew point: -10 °C - Humidity: 28.9% - Pressure: 1017 hPa

Sorry, no flights used the airport in this database.